createdAt,value
2019-05-28T00:01:52.877Z,83.80
2019-05-28T00:04:23.772Z,82.72
2019-05-28T00:06:55.016Z,83.33
2019-05-28T00:09:26.405Z,83.44
2019-05-28T00:11:57.321Z,83.09
2019-05-28T00:14:27.993Z,83.31
2019-05-28T00:16:58.563Z,82.91
2019-05-28T00:19:29.220Z,82.63
2019-05-28T00:22:00.075Z,82.56
2019-05-28T00:24:31.737Z,83.13
2019-05-28T00:27:02.867Z,83.16
2019-05-28T00:29:33.819Z,83.66
2019-05-28T00:32:04.560Z,83.66
2019-05-28T00:34:36.197Z,83.69
2019-05-28T00:37:07.422Z,84.18
2019-05-28T00:39:38.214Z,84.59
2019-05-28T00:42:08.998Z,85.01
2019-05-28T00:44:39.723Z,85.30
2019-05-28T00:47:10.395Z,85.63
2019-05-28T00:49:41.083Z,86.10
2019-05-28T00:52:11.892Z,86.33
2019-05-28T00:54:42.861Z,86.54
2019-05-28T00:57:16.011Z,86.79
2019-05-28T00:59:47.892Z,86.75
2019-05-28T01:02:18.826Z,86.29
2019-05-28T01:04:49.547Z,86.97
2019-05-28T01:07:20.255Z,87.17
2019-05-28T01:09:50.909Z,87.55
2019-05-28T01:12:21.531Z,88.08
2019-05-28T01:14:52.192Z,88.32
2019-05-28T01:17:24.370Z,89.01
2019-05-28T01:19:55.004Z,89.42
2019-05-28T01:22:25.768Z,89.84
2019-05-28T01:24:57.095Z,89.85
2019-05-28T01:27:27.990Z,90.35
2019-05-28T01:29:58.631Z,90.79
2019-05-28T01:32:29.251Z,91.64
2019-05-28T01:34:59.934Z,91.57
2019-05-28T01:37:30.677Z,91.96
2019-05-28T01:40:01.473Z,92.26
2019-05-28T01:42:32.234Z,92.21
2019-05-28T01:45:03.026Z,92.79
2019-05-28T01:47:33.845Z,93.15
2019-05-28T01:50:07.819Z,93.49
2019-05-28T01:52:39.976Z,93.54
2019-05-28T01:55:11.003Z,93.69
2019-05-28T01:57:41.937Z,94.05
2019-05-28T02:00:13.429Z,94.57
2019-05-28T02:02:44.185Z,94.61
2019-05-28T02:05:16.520Z,95.39
2019-05-28T02:07:47.417Z,94.74
2019-05-28T02:10:19.685Z,94.66
2019-05-28T02:12:50.529Z,95.99
2019-05-28T02:15:23.070Z,96.52
2019-05-28T02:17:54.821Z,96.26
2019-05-28T02:20:25.752Z,96.51
2019-05-28T02:22:57.014Z,96.79
2019-05-28T02:25:27.850Z,96.73
2019-05-28T02:27:58.577Z,97.48
2019-05-28T02:30:29.517Z,97.10
2019-05-28T02:33:00.263Z,96.64
2019-05-28T02:35:31.869Z,98.23
2019-05-28T02:38:02.493Z,97.83
2019-05-28T02:40:33.333Z,98.96
2019-05-28T02:43:04.031Z,98.65
2019-05-28T02:45:34.760Z,98.21
2019-05-28T02:48:05.651Z,98.77
2019-05-28T02:50:47.808Z,98.36
2019-05-28T02:53:18.531Z,98.58
2019-05-28T02:55:49.853Z,99.41
2019-05-28T02:58:21.681Z,99.44
2019-05-28T03:00:54.308Z,99.48
2019-05-28T03:03:27.883Z,99.93
2019-05-28T03:05:59.278Z,100.00
2019-05-28T03:08:31.259Z,100.00
2019-05-28T03:11:04.141Z,100.00
2019-05-28T03:13:35.354Z,100.00
2019-05-28T03:16:08.071Z,100.00
2019-05-28T03:18:40.596Z,100.00
2019-05-28T03:21:12.507Z,99.68
2019-05-28T03:23:44.400Z,100.00
2019-05-28T03:26:16.670Z,99.24
2019-05-28T03:28:47.404Z,98.76
2019-05-28T03:31:18.227Z,98.61
2019-05-28T03:33:49.154Z,99.17
2019-05-28T03:36:22.362Z,98.32
2019-05-28T03:38:53.628Z,98.76
2019-05-28T03:41:24.380Z,98.93
2019-05-28T03:43:55.305Z,99.30
2019-05-28T03:46:26.954Z,99.31
2019-05-28T03:48:57.624Z,100.00
2019-05-28T03:51:28.361Z,100.00
2019-05-28T03:53:59.005Z,100.00
2019-05-28T03:56:29.722Z,100.00
2019-05-28T03:59:00.450Z,99.93
2019-05-28T04:01:31.324Z,100.00
2019-05-28T04:04:01.921Z,100.00
2019-05-28T04:06:32.877Z,100.00
2019-05-28T04:09:05.965Z,100.00
2019-05-28T04:11:44.629Z,100.00
2019-05-28T04:14:09.523Z,100.00
2019-05-28T04:16:40.384Z,100.00
2019-05-28T04:19:11.228Z,100.00
2019-05-28T04:21:41.817Z,100.00
2019-05-28T04:24:12.424Z,100.00
2019-05-28T04:26:43.123Z,100.00
2019-05-28T04:29:14.749Z,100.00
2019-05-28T04:31:45.652Z,100.00
2019-05-28T04:34:16.458Z,100.00
2019-05-28T04:36:47.138Z,100.00
2019-05-28T04:39:18.038Z,100.00
2019-05-28T04:41:48.694Z,100.00
2019-05-28T04:44:19.259Z,100.00
2019-05-28T04:46:50.136Z,100.00
2019-05-28T04:49:20.776Z,100.00
2019-05-28T04:51:51.594Z,100.00
2019-05-28T04:54:22.393Z,100.00
2019-05-28T04:56:53.251Z,100.00
2019-05-28T04:59:23.990Z,100.00
2019-05-28T05:01:54.801Z,100.00
2019-05-28T05:04:25.729Z,100.00
2019-05-28T05:06:56.436Z,100.00
2019-05-28T05:09:27.177Z,100.00
2019-05-28T05:11:57.864Z,99.51
2019-05-28T05:14:28.615Z,99.81
2019-05-28T05:16:59.244Z,98.88
2019-05-28T05:19:29.957Z,99.53
2019-05-28T05:22:01.051Z,99.43
2019-05-28T05:24:32.275Z,98.78
2019-05-28T05:27:02.964Z,97.61
2019-05-28T05:29:33.794Z,98.49
2019-05-28T05:32:04.571Z,98.79
2019-05-28T05:34:35.210Z,98.79
2019-05-28T05:37:06.614Z,98.80
2019-05-28T05:39:37.255Z,99.07
2019-05-28T05:42:08.075Z,99.05
2019-05-28T05:44:39.861Z,100.00
2019-05-28T05:47:11.653Z,98.31
2019-05-28T05:49:42.748Z,97.58
2019-05-28T05:52:13.495Z,97.78
2019-05-28T05:54:44.453Z,98.27
2019-05-28T05:57:15.401Z,96.81
2019-05-28T05:59:46.211Z,96.66
2019-05-28T06:02:19.311Z,94.67
2019-05-28T06:04:50.127Z,93.40
2019-05-28T06:07:20.795Z,90.78
2019-05-28T06:09:51.377Z,91.80
2019-05-28T06:12:22.380Z,95.60
2019-05-28T06:14:53.332Z,97.71
2019-05-28T06:17:24.048Z,97.35
2019-05-28T06:19:54.946Z,95.52
2019-05-28T06:22:25.915Z,97.34
2019-05-28T06:24:56.937Z,96.32
2019-05-28T06:27:27.674Z,97.31
2019-05-28T06:29:58.531Z,97.92
2019-05-28T06:32:32.840Z,96.13
2019-05-28T06:35:01.809Z,95.49
2019-05-28T06:37:51.708Z,95.89
2019-05-28T06:40:25.701Z,89.86
2019-05-28T06:42:56.666Z,92.02
2019-05-28T06:45:29.305Z,95.84
2019-05-28T06:51:17.410Z,97.68
2019-05-28T06:53:48.613Z,98.51
2019-05-28T06:56:31.431Z,98.67
2019-05-28T07:02:38.798Z,94.27
2019-05-28T07:11:31.281Z,96.86
2019-05-28T07:14:01.962Z,98.51
2019-05-28T07:16:33.052Z,97.44
2019-05-28T07:19:03.939Z,96.98
2019-05-28T07:21:34.823Z,95.42
2019-05-28T07:24:05.930Z,95.66
2019-05-28T07:26:36.933Z,96.51
2019-05-28T07:29:09.307Z,96.63
2019-05-28T07:31:41.424Z,97.93
2019-05-28T07:34:12.071Z,97.29
2019-05-28T07:36:43.094Z,96.81
2019-05-28T07:39:14.872Z,97.98
2019-05-28T07:41:45.684Z,98.53
2019-05-28T07:44:16.645Z,98.40
2019-05-28T07:46:47.550Z,98.92
2019-05-28T07:49:18.667Z,98.71
2019-05-28T07:51:49.534Z,98.49
2019-05-28T07:54:20.457Z,97.55
2019-05-28T07:56:51.327Z,97.19
2019-05-28T07:59:23.250Z,96.52
2019-05-28T08:01:53.954Z,97.40
2019-05-28T08:04:24.835Z,97.15
2019-05-28T08:06:57.804Z,97.71
2019-05-28T08:09:28.750Z,98.36
2019-05-28T08:11:59.695Z,97.80
2019-05-28T08:14:30.434Z,96.72
2019-05-28T08:17:01.096Z,95.43
2019-05-28T08:19:31.997Z,96.30
2019-05-28T08:22:03.009Z,96.11
2019-05-28T08:24:33.991Z,95.94
2019-05-28T08:27:05.054Z,94.95
2019-05-28T08:29:35.988Z,95.39
2019-05-28T08:32:06.859Z,95.29
2019-05-28T08:34:38.170Z,95.06
2019-05-28T08:37:09.309Z,95.51
2019-05-28T08:39:39.971Z,96.40
2019-05-28T08:42:10.732Z,96.03
2019-05-28T08:44:41.620Z,96.32
2019-05-28T08:47:12.463Z,96.71
2019-05-28T08:49:43.213Z,95.98
2019-05-28T08:52:13.921Z,95.83
2019-05-28T08:54:44.734Z,94.41
2019-05-28T08:57:15.631Z,96.16
2019-05-28T08:59:48.087Z,95.65
2019-05-28T09:02:27.743Z,94.87
2019-05-28T09:04:51.322Z,90.98
2019-05-28T09:07:21.978Z,91.55
2019-05-28T09:09:52.697Z,95.95
2019-05-28T09:12:23.412Z,94.02
2019-05-28T09:14:56.516Z,93.44
2019-05-28T09:17:26.932Z,93.34
2019-05-28T09:19:57.629Z,94.64
2019-05-28T09:22:28.434Z,94.14
2019-05-28T09:24:59.361Z,93.37
2019-05-28T09:27:30.236Z,91.57
2019-05-28T09:30:01.045Z,93.04
2019-05-28T09:32:31.910Z,90.79
2019-05-28T09:35:03.462Z,92.77
2019-05-28T09:37:34.381Z,93.08
2019-05-28T09:40:09.127Z,92.67
2019-05-28T09:42:40.085Z,90.70
2019-05-28T09:45:22.369Z,93.38
2019-05-28T09:47:44.394Z,95.00
2019-05-28T09:50:29.809Z,94.61
2019-05-28T09:52:54.334Z,91.87
2019-05-28T09:55:20.889Z,94.12
2019-05-28T09:57:52.591Z,94.66
2019-05-28T10:00:24.881Z,90.70
2019-05-28T10:02:55.654Z,90.41
2019-05-28T10:05:26.465Z,93.30
2019-05-28T10:07:57.254Z,88.45
2019-05-28T10:10:28.080Z,90.09
2019-05-28T10:12:59.177Z,92.45
2019-05-28T10:15:30.324Z,91.16
2019-05-28T10:18:00.962Z,92.15
2019-05-28T10:20:32.317Z,93.71
2019-05-28T10:23:03.132Z,93.74
2019-05-28T10:25:33.865Z,96.15
2019-05-28T10:28:04.788Z,91.63
2019-05-28T10:30:35.535Z,93.63
2019-05-28T10:33:06.281Z,92.79
2019-05-28T10:35:37.154Z,89.34
2019-05-28T10:38:14.513Z,89.69
2019-05-28T10:40:40.304Z,91.39
2019-05-28T10:43:11.158Z,91.31
2019-05-28T10:45:41.906Z,92.43
2019-05-28T10:48:12.807Z,89.97
2019-05-28T10:50:43.570Z,90.28
2019-05-28T10:53:14.251Z,90.22
2019-05-28T10:55:45.017Z,91.11
2019-05-28T10:58:16.046Z,90.90
2019-05-28T11:00:46.789Z,91.01
2019-05-28T11:03:17.712Z,90.97
2019-05-28T11:05:48.603Z,91.28
2019-05-28T11:08:19.300Z,93.64
2019-05-28T11:10:51.463Z,93.51
2019-05-28T11:13:22.246Z,88.33
2019-05-28T11:15:52.917Z,88.77
2019-05-28T11:18:25.394Z,87.51
2019-05-28T11:20:56.225Z,87.26
2019-05-28T11:23:26.929Z,85.08
2019-05-28T11:25:57.850Z,87.94
2019-05-28T11:28:28.547Z,86.07
2019-05-28T11:30:59.278Z,87.82
2019-05-28T11:33:30.017Z,88.60
2019-05-28T11:36:00.830Z,86.92
2019-05-28T11:38:31.600Z,86.06
2019-05-28T11:41:02.324Z,86.78
2019-05-28T11:43:33.133Z,84.85
2019-05-28T11:46:03.912Z,84.59
2019-05-28T11:48:34.450Z,86.79
2019-05-28T11:51:08.305Z,87.38
2019-05-28T11:53:39.319Z,85.78
2019-05-28T11:56:10.115Z,84.50
2019-05-28T11:58:41.034Z,83.86
2019-05-28T12:01:11.877Z,85.34
2019-05-28T12:03:42.837Z,85.33
2019-05-28T12:06:13.506Z,86.64
2019-05-28T12:08:44.225Z,86.45
2019-05-28T12:11:14.855Z,84.04
2019-05-28T12:13:45.460Z,84.75
2019-05-28T12:16:16.324Z,82.80
2019-05-28T12:18:46.965Z,83.97
2019-05-28T12:21:17.624Z,84.60
2019-05-28T12:23:49.149Z,82.93
2019-05-28T12:26:19.893Z,84.29
2019-05-28T12:28:52.007Z,81.33
2019-05-28T12:31:22.830Z,81.70
2019-05-28T12:33:53.780Z,82.63
2019-05-28T12:36:24.792Z,80.94
2019-05-28T12:38:55.928Z,82.10
2019-05-28T12:41:27.852Z,82.75
2019-05-28T12:43:58.638Z,84.63
2019-05-28T12:46:29.491Z,82.89
2019-05-28T12:49:00.377Z,82.92
2019-05-28T12:51:31.645Z,83.39
2019-05-28T12:54:02.793Z,84.03
2019-05-28T12:56:33.446Z,82.70
2019-05-28T12:59:04.396Z,83.60
2019-05-28T13:01:36.237Z,82.08
2019-05-28T13:04:07.252Z,84.31
2019-05-28T13:06:39.695Z,84.07
2019-05-28T13:09:10.689Z,84.34
2019-05-28T13:11:41.521Z,83.37
2019-05-28T13:14:13.825Z,83.47
2019-05-28T13:16:44.642Z,81.48
2019-05-28T13:19:15.415Z,82.98
2019-05-28T13:21:46.374Z,81.28
2019-05-28T13:24:18.276Z,82.99
2019-05-28T13:26:49.457Z,83.28
2019-05-28T13:29:20.228Z,82.76
2019-05-28T13:31:51.055Z,83.27
2019-05-28T13:34:21.792Z,83.38
2019-05-28T13:36:52.418Z,83.32
2019-05-28T13:39:23.269Z,82.68
2019-05-28T13:41:54.156Z,82.95
2019-05-28T13:44:24.878Z,82.98
2019-05-28T13:46:55.550Z,84.33
2019-05-28T13:49:27.879Z,82.86
2019-05-28T13:52:11.413Z,82.87
2019-05-28T13:54:31.510Z,82.47
2019-05-28T13:57:02.321Z,82.54
2019-05-28T13:59:43.105Z,82.51
2019-05-28T14:02:13.894Z,83.54
2019-05-28T14:04:46.120Z,83.54
2019-05-28T14:07:17.022Z,82.83
2019-05-28T14:09:50.321Z,83.58
2019-05-28T14:12:23.759Z,82.31
2019-05-28T14:14:54.750Z,83.27
2019-05-28T14:17:25.542Z,81.68
2019-05-28T14:19:56.377Z,82.09
2019-05-28T14:22:33.968Z,81.93
2019-05-28T14:25:00.369Z,80.53
2019-05-28T14:27:31.118Z,79.58
2019-05-28T14:30:01.724Z,80.98
2019-05-28T14:32:32.356Z,80.61
2019-05-28T14:35:03.174Z,80.93
2019-05-28T14:37:33.808Z,81.02
2019-05-28T14:40:06.903Z,80.84
2019-05-28T14:42:38.603Z,81.53
2019-05-28T14:45:10.570Z,82.49
2019-05-28T14:47:41.221Z,81.95
2019-05-28T14:50:13.907Z,81.79
2019-05-28T14:52:44.819Z,81.09
2019-05-28T14:55:16.169Z,81.15
2019-05-28T14:57:46.964Z,81.72
2019-05-28T15:00:19.628Z,81.99
2019-05-28T15:02:51.862Z,81.33
2019-05-28T15:05:23.973Z,81.43
2019-05-28T15:07:54.981Z,81.68
2019-05-28T15:10:25.820Z,81.72
2019-05-28T15:12:56.695Z,83.14
2019-05-28T15:15:35.886Z,83.07
2019-05-28T15:18:00.831Z,81.97
2019-05-28T15:20:32.109Z,82.49
2019-05-28T15:23:07.403Z,81.97
2019-05-28T15:25:38.117Z,82.80
2019-05-28T15:28:09.006Z,83.40
2019-05-28T15:30:42.624Z,82.71
2019-05-28T15:33:12.438Z,83.43
2019-05-28T15:35:45.780Z,83.55
2019-05-28T15:38:16.816Z,83.77
2019-05-28T15:40:47.656Z,83.94
2019-05-28T15:43:19.682Z,83.96
2019-05-28T15:45:50.905Z,84.48
2019-05-28T15:48:22.399Z,85.41
2019-05-28T15:50:54.028Z,85.18
2019-05-28T15:53:25.424Z,85.97
2019-05-28T15:55:56.603Z,85.90
2019-05-28T15:58:28.118Z,86.01
2019-05-28T16:00:58.977Z,86.42
2019-05-28T16:03:30.483Z,85.60
2019-05-28T16:06:01.460Z,85.53
2019-05-28T16:08:32.506Z,83.94
2019-05-28T16:11:03.459Z,84.04
2019-05-28T16:13:34.301Z,83.21
2019-05-28T16:16:07.776Z,82.56
2019-05-28T16:18:40.557Z,83.67
2019-05-28T16:21:11.534Z,83.40
2019-05-28T16:23:42.415Z,83.78
2019-05-28T16:26:13.592Z,83.07
2019-05-28T16:28:44.348Z,84.36
2019-05-28T16:31:15.785Z,84.78
2019-05-28T16:33:46.892Z,85.40
2019-05-28T16:36:17.687Z,86.23
2019-05-28T16:38:49.858Z,85.44
2019-05-28T16:41:20.548Z,86.22
2019-05-28T16:43:52.291Z,87.00
2019-05-28T16:46:24.238Z,87.84
2019-05-28T16:48:55.309Z,87.46
2019-05-28T16:51:26.182Z,88.38
2019-05-28T16:53:58.174Z,89.21
2019-05-28T16:56:28.809Z,90.47
2019-05-28T16:59:00.492Z,90.13
2019-05-28T17:01:32.541Z,89.91
2019-05-28T17:04:03.880Z,90.26
2019-05-28T17:06:38.024Z,90.98
2019-05-28T17:09:11.619Z,90.98
2019-05-28T17:11:43.721Z,91.63
2019-05-28T17:14:15.207Z,92.05
2019-05-28T17:16:46.513Z,92.05
2019-05-28T17:19:17.620Z,92.51
2019-05-28T17:21:53.751Z,92.38
2019-05-28T17:24:30.253Z,92.68
2019-05-28T17:27:01.355Z,92.63
2019-05-28T17:29:32.511Z,92.67
2019-05-28T17:32:03.382Z,93.32
2019-05-28T17:34:34.324Z,93.32
2019-05-28T17:37:05.696Z,93.49
2019-05-28T17:39:37.473Z,93.92
2019-05-28T17:42:08.882Z,93.53
2019-05-28T17:44:40.928Z,94.29
2019-05-28T17:47:12.215Z,94.26
2019-05-28T17:49:44.802Z,94.29
2019-05-28T17:52:15.736Z,95.44
2019-05-28T17:54:46.647Z,95.37
2019-05-28T17:57:18.737Z,94.66
2019-05-28T17:59:50.512Z,95.07
2019-05-28T18:02:22.559Z,95.51
2019-05-28T18:04:56.384Z,95.51
2019-05-28T18:07:27.978Z,95.47
2019-05-28T18:09:59.400Z,94.41
2019-05-28T18:12:30.913Z,95.58
2019-05-28T18:15:05.899Z,95.53
2019-05-28T18:17:37.046Z,95.53
2019-05-28T18:20:09.328Z,96.36
2019-05-28T18:22:41.778Z,95.66
2019-05-28T18:25:12.783Z,96.11
2019-05-28T18:27:44.687Z,96.12
2019-05-28T18:30:17.519Z,96.19
2019-05-28T18:32:49.314Z,96.40
2019-05-28T18:35:23.227Z,96.69
2019-05-28T18:38:02.992Z,96.91
2019-05-28T18:40:28.545Z,96.99
2019-05-28T18:43:03.357Z,97.06
2019-05-28T18:45:36.385Z,96.36
2019-05-28T18:48:08.463Z,96.75
2019-05-28T18:50:39.519Z,97.04
2019-05-28T18:53:10.436Z,97.19
2019-05-28T18:55:43.224Z,97.00
2019-05-28T18:58:15.310Z,97.63
2019-05-28T19:00:46.407Z,97.63
2019-05-28T19:03:17.174Z,97.37
2019-05-28T19:05:49.794Z,97.66
2019-05-28T19:08:21.031Z,98.21
2019-05-28T19:10:54.525Z,98.09
2019-05-28T19:13:25.499Z,97.91
2019-05-28T19:15:59.362Z,98.16
2019-05-28T19:18:30.977Z,98.21
2019-05-28T19:21:02.719Z,97.90
2019-05-28T19:23:34.738Z,97.82
2019-05-28T19:26:06.187Z,98.02
2019-05-28T19:28:37.520Z,97.33
2019-05-28T19:31:08.384Z,97.08
2019-05-28T19:33:39.051Z,97.21
2019-05-28T19:36:12.005Z,97.46
2019-05-28T19:38:45.871Z,97.75
2019-05-28T19:41:17.361Z,98.04
2019-05-28T19:43:48.460Z,97.99
2019-05-28T19:46:19.773Z,97.51
2019-05-28T19:48:51.525Z,98.39
2019-05-28T19:51:23.378Z,97.85
2019-05-28T19:53:57.093Z,97.71
2019-05-28T19:56:28.214Z,97.63
2019-05-28T19:58:59.073Z,98.04
2019-05-28T20:01:31.518Z,98.20
2019-05-28T20:04:03.819Z,98.02
2019-05-28T20:06:35.205Z,98.20
2019-05-28T20:09:08.659Z,98.60
2019-05-28T20:11:39.959Z,98.81
2019-05-28T20:14:13.548Z,98.57
2019-05-28T20:16:47.768Z,98.10
2019-05-28T20:19:19.448Z,98.45
2019-05-28T20:21:58.807Z,98.41
2019-05-28T20:24:32.672Z,98.19
2019-05-28T20:27:04.670Z,98.00
2019-05-28T20:29:35.651Z,97.79
2019-05-28T20:32:09.362Z,97.91
2019-05-28T20:34:41.103Z,98.02
2019-05-28T20:37:13.783Z,98.01
2019-05-28T20:39:45.162Z,98.09
2019-05-28T20:42:26.900Z,98.56
2019-05-28T20:44:50.342Z,98.44
2019-05-28T20:47:23.781Z,98.50
2019-05-28T20:49:55.689Z,98.56
2019-05-28T20:52:29.674Z,98.40
2019-05-28T20:55:08.256Z,98.21
2019-05-28T20:57:41.085Z,98.17
2019-05-28T21:00:13.285Z,97.89
2019-05-28T21:02:44.349Z,98.22
2019-05-28T21:05:18.516Z,98.02
2019-05-28T21:07:54.362Z,98.33
2019-05-28T21:10:25.943Z,98.31
2019-05-28T21:13:00.519Z,98.51
2019-05-28T21:15:32.890Z,98.46
2019-05-28T21:18:04.564Z,98.48
2019-05-28T21:20:36.027Z,98.25
2019-05-28T21:23:08.590Z,98.64
2019-05-28T21:25:40.934Z,98.33
2019-05-28T21:28:14.001Z,98.36
2019-05-28T21:30:45.972Z,98.27
2019-05-28T21:33:17.537Z,98.32
2019-05-28T21:35:48.588Z,97.91
2019-05-28T21:38:20.264Z,97.62
2019-05-28T21:40:53.493Z,97.68
2019-05-28T21:43:27.330Z,97.63
2019-05-28T21:46:00.341Z,97.55
2019-05-28T21:48:33.693Z,97.71
2019-05-28T21:51:05.546Z,97.78
2019-05-28T21:53:37.106Z,97.75
2019-05-28T21:56:08.145Z,97.86
2019-05-28T21:58:39.495Z,97.59
2019-05-28T22:01:16.778Z,97.42
2019-05-28T22:03:48.606Z,97.56
2019-05-28T22:06:19.942Z,97.36
2019-05-28T22:08:50.859Z,97.58
2019-05-28T22:11:22.144Z,97.63
2019-05-28T22:13:53.032Z,97.66
2019-05-28T22:16:24.918Z,97.67
2019-05-28T22:18:56.744Z,98.09
2019-05-28T22:21:27.808Z,98.33
2019-05-28T22:24:00.526Z,98.19
2019-05-28T22:26:32.635Z,98.24
2019-05-28T22:29:04.205Z,98.17
2019-05-28T22:31:35.148Z,97.81
2019-05-28T22:34:07.298Z,97.63
2019-05-28T22:36:38.816Z,97.78
2019-05-28T22:39:10.045Z,97.16
2019-05-28T22:41:42.437Z,96.63
2019-05-28T22:44:13.462Z,96.42
2019-05-28T22:46:44.149Z,96.14
2019-05-28T22:49:15.717Z,95.83
2019-05-28T22:51:46.392Z,95.40
2019-05-28T22:54:17.470Z,95.75
2019-05-28T22:56:48.619Z,96.37
2019-05-28T22:59:19.487Z,96.05
2019-05-28T23:01:50.475Z,95.90
2019-05-28T23:04:21.405Z,95.53
2019-05-28T23:06:52.404Z,95.92
2019-05-28T23:09:23.433Z,95.80
2019-05-28T23:11:54.359Z,96.11
2019-05-28T23:14:25.637Z,95.95
2019-05-28T23:16:56.677Z,96.00
2019-05-28T23:19:27.528Z,96.25
2019-05-28T23:21:58.387Z,96.42
2019-05-28T23:24:29.328Z,96.37
2019-05-28T23:27:01.299Z,96.55
2019-05-28T23:29:32.519Z,96.38
2019-05-28T23:32:03.973Z,96.51
2019-05-28T23:34:34.836Z,96.54
2019-05-28T23:37:06.380Z,96.20
2019-05-28T23:39:38.465Z,95.77
2019-05-28T23:42:09.388Z,94.98
2019-05-28T23:44:40.316Z,94.81
2019-05-28T23:47:12.226Z,93.65
2019-05-28T23:49:43.677Z,93.54
2019-05-28T23:52:15.448Z,92.13
2019-05-28T23:54:46.428Z,91.82
2019-05-28T23:57:18.147Z,92.06
2019-05-28T23:59:49.117Z,92.05
